Data for 10/29/2006

Time Sea-Level Adjusted Pressure Absolute Pressure Temperature Relative Humidity Dew Point   
(mb) (inHg) (mb) (inHg) (C) (F) (%) (C) (F)
00:05 1014 29.94 844 24.92 8 46.4 28 -9.5 15
00:10 1014 29.94 844 24.92 8.3 46.9 27 -9.6 14.8
00:15 1014 29.94 843 24.89 8.6 47.4 26 -9.8 14.4
00:20 1014 29.94 843 24.89 8.4 47 27 -9.4 15.2
00:25 1014 29.94 843 24.89 8.3 46.9 28 -9.4 15.1
00:30 1014 29.94 843 24.89 8.5 47.2 27 -9.7 14.5
00:35 1014 29.94 843 24.89 9 48.1 26 -9.4 15
00:40 1014 29.94 843 24.89 8.8 47.8 27 -9.3 15.3
00:45 1014 29.94 843 24.89 8.8 47.8 27 -9.3 15.2
00:50 1014 29.94 843 24.89 8.5 47.4 28 -9.2 15.5
00:55 1014 29.94 843 24.89 8.2 46.7 28 -9.3 15.2
01:00 1014 29.94 843 24.89 8.3 46.9 28 -9.1 15.7
01:05 1014 29.94 843 24.89 8.1 46.6 29 -9 15.8
01:10 1014 29.94 843 24.89 8 46.3 29 -9.1 15.6
01:15 1014 29.94 843 24.89 7.9 46.1 30 -8.7 16.3
01:20 1014 29.94 843 24.89 7.7 45.9 30 -8.9 16
01:25 1014 29.94 843 24.89 7.8 46 29 -9.1 15.5
01:30 1014 29.94 843 24.89 8.1 46.5 30 -8.6 16.5
01:35 1013 29.91 843 24.89 7.2 44.9 32 -8.3 17.1
01:40 1013 29.91 843 24.89 6.2 43.2 33 -8.7 16.3
01:45 1013 29.91 843 24.89 6 42.9 33 -9.1 15.6
01:50 1013 29.91 843 24.89 6.2 43.2 32 -9.1 15.6
01:55 1013 29.91 843 24.89 6.3 43.4 32 -9.1 15.6
01:00 1013 29.91 842 24.86 6.3 43.3 32 -9.4 15.1
01:05 1013 29.91 842 24.86 6.6 43.8 31 -9.4 15.1
01:10 1013 29.91 842 24.86 6.8 44.3 30 -9.4 15.1
01:15 1013 29.91 842 24.86 6.8 44.3 30 -9.4 15.2
01:20 1013 29.91 842 24.86 6.8 44.2 30 -9.5 14.9
01:25 1013 29.91 842 24.86 7 44.6 30 -9.6 14.7
01:30 1013 29.91 842 24.86 7.1 44.7 30 -9.5 14.8
01:35 1013 29.91 842 24.86 7.1 44.7 30 -9.5 14.9
01:40 1013 29.91 842 24.86 7 44.6 30 -9.5 14.9
01:45 1013 29.91 842 24.86 7.2 45 29 -9.5 14.8
01:50 1013 29.91 842 24.86 7.3 45.2 30 -9.3 15.3
01:55 1013 29.91 842 24.86 6.8 44.2 31 -9.3 15.3
02:00 1013 29.91 842 24.86 6.2 43.1 32 -9.4 15.1
02:05 1013 29.91 842 24.86 6.2 43.1 32 -9.5 14.9
02:10 1013 29.91 842 24.86 6.3 43.4 31 -9.5 14.8
02:15 1013 29.91 842 24.86 6.2 43.2 32 -9.4 15
02:20 1013 29.91 842 24.86 6 42.9 32 -9.5 14.8
02:25 1013 29.91 842 24.86 6.1 43 32 -9.6 14.7
02:30 1012 29.88 842 24.86 6.1 42.9 32 -9.5 14.9
02:35 1012 29.88 842 24.86 6.2 43.1 31 -9.7 14.6
02:40 1012 29.88 842 24.86 6.3 43.4 31 -9.6 14.7
02:45 1012 29.88 842 24.86 6.3 43.4 31 -9.6 14.7
02:50 1012 29.88 842 24.86 6.2 43.2 31 -9.6 14.8
02:55 1012 29.88 842 24.86 6.1 42.9 32 -9.5 14.9
03:00 1012 29.88 841 24.83 6.6 43.9 27 -11.1 12
03:05 1012 29.88 841 24.83 7.9 46.3 27 -10 14
03:10 1012 29.88 841 24.83 8.5 47.2 26 -10.1 13.9
03:15 1012 29.88 841 24.83 9.2 48.6 21 -11.8 10.7
03:20 1012 29.88 841 24.83 10.4 50.6 23 -10 14.1
03:25 1012 29.88 841 24.83 9.8 49.6 25 -9.3 15.3
03:30 1012 29.88 841 24.83 8.6 47.5 27 -9.5 15
03:35 1012 29.88 841 24.83 8.4 47 26 -9.9 14.2
03:40 1012 29.88 841 24.83 9 48.3 25 -10.2 13.7
03:45 1012 29.88 841 24.83 9.2 48.6 24 -10.1 13.8
03:50 1012 29.88 841 24.83 9.4 48.9 24 -10.1 13.8
03:55 1012 29.88 841 24.83 9.5 49 25 -9.7 14.6
04:00 1012 29.88 841 24.83 9.2 48.6 26 -9.4 15.1
04:05 1012 29.88 841 24.83 8.5 47.3 28 -9 15.8
04:10 1011 29.85 841 24.83 7.9 46.3 29 -8.8 16.1
04:15 1011 29.85 841 24.83 7.5 45.5 31 -8.4 16.8
04:20 1011 29.85 840 24.81 7 44.6 31 -8.9 15.9
04:25 1011 29.85 840 24.81 7.3 45.1 30 -9.1 15.6
04:30 1011 29.85 840 24.81 7.6 45.7 30 -8.8 16.1
04:35 1011 29.85 840 24.81 7.7 45.9 30 -8.9 16
04:40 1011 29.85 840 24.81 8 46.4 30 -8.7 16.4
04:45 1011 29.85 840 24.81 8 46.4 30 -8.6 16.5
04:50 1011 29.85 840 24.81 8 46.4 30 -8.4 17
04:55 1011 29.85 840 24.81 7.8 46.1 31 -8.5 16.8
05:00 1011 29.85 840 24.81 7.8 46.1 31 -8.2 17.2
05:05 1011 29.85 840 24.81 7.4 45.4 33 -8 17.6
05:10 1011 29.85 840 24.81 7.1 44.7 33 -8 17.5
05:15 1011 29.85 840 24.81 6.7 44.1 34 -8.2 17.2
05:20 1011 29.85 840 24.81 6.7 44 33 -8.5 16.8
05:25 1011 29.85 840 24.81 7 44.7 32 -8.5 16.7
05:30 1011 29.85 840 24.81 7.2 45 32 -8.5 16.7
05:35 1011 29.85 840 24.81 7.4 45.3 30 -9 15.7
05:40 1011 29.85 840 24.81 7.8 46 29 -9.2 15.4
05:45 1011 29.85 840 24.81 8.2 46.7 28 -9.1 15.6
05:50 1011 29.85 840 24.81 8.3 46.9 29 -8.9 16
05:55 1011 29.85 840 24.81 7.9 46.3 30 -8.5 16.6
06:00 1011 29.85 840 24.81 7.1 44.8 32 -8.6 16.5
06:05 1010 29.83 840 24.81 6.7 44 33 -8.4 16.9
06:10 1010 29.83 840 24.81 6.5 43.7 33 -8.6 16.5
06:15 1010 29.83 840 24.81 6.2 43.2 31 -9.8 14.4
06:20 1010 29.83 840 24.81 7.8 46.1 27 -9.9 14.3
06:25 1010 29.83 839 24.78 8.5 47.2 27 -9.3 15.3
06:30 1010 29.83 839 24.78 8.8 47.8 27 -9.3 15.2
06:35 1010 29.83 839 24.78 8.9 48 28 -8.7 16.3
06:40 1010 29.83 839 24.78 8.4 47.2 30 -8.3 17.1
06:45 1010 29.83 839 24.78 7.1 44.7 33 -8 17.6
06:50 1010 29.83 839 24.78 6.1 43.1 33 -9 15.7
06:55 1010 29.83 839 24.78 6.3 43.4 33 -8.6 16.4
07:00 1010 29.83 839 24.78 5.4 41.8 37 -8.2 17.3
07:05 1010 29.83 839 24.78 4.4 40 39 -8.5 16.8
07:10 1010 29.83 839 24.78 4.9 40.9 36 -8.8 16.1
07:15 1010 29.83 839 24.78 5 41.1 35 -9.3 15.3
07:20 1010 29.83 839 24.78 5.3 41.5 35 -9 15.8
07:25 1010 29.83 839 24.78 5.2 41.3 35 -9.2 15.4
07:30 1010 29.83 839 24.78 5.4 41.7 34 -9.4 15.1
07:35 1010 29.83 839 24.78 5.6 42 34 -9 15.8
07:40 1010 29.83 839 24.78 5.9 42.7 33 -9 15.8
07:45 1009 29.8 839 24.78 6.2 43.2 32 -9.1 15.6
07:50 1009 29.8 839 24.78 6.6 43.9 32 -9 15.9
07:55 1009 29.8 839 24.78 6.8 44.2 32 -8.7 16.3
08:00 1009 29.8 838 24.75 7.4 45.2 30 -8.9 15.9
08:05 1009 29.8 838 24.75 8 46.3 29 -9 15.8
08:10 1009 29.8 838 24.75 8.7 47.7 28 -8.8 16.2
08:15 1009 29.8 838 24.75 9.6 49.2 27 -8.7 16.4
08:20 1009 29.8 838 24.75 9.9 49.8 27 -8.3 17.1
08:25 1009 29.8 838 24.75 10.3 50.6 25 -8.7 16.4
08:30 1009 29.8 838 24.75 11.4 52.5 25 -7.9 17.7
08:35 1009 29.8 838 24.75 11.8 53.3 25 -7.7 18.2
08:40 1009 29.8 838 24.75 11.5 52.7 26 -7.4 18.7
08:45 1009 29.8 838 24.75 11.9 53.4 25 -7.4 18.7
08:50 1009 29.8 838 24.75 12.5 54.4 26 -6.5 20.4
08:55 1009 29.8 838 24.75 11.8 53.3 27 -6.7 19.9
09:00 1009 29.8 838 24.75 12.1 53.7 26 -7 19.4
09:05 1008 29.77 838 24.75 12.4 54.4 27 -6.2 20.8
09:10 1008 29.77 838 24.75 12.8 55 27 -5.8 21.5
09:15 1008 29.77 838 24.75 12.2 54 27 -6.3 20.6
09:20 1008 29.77 837 24.72 13.2 55.7 25 -6.5 20.3
09:25 1008 29.77 837 24.72 14.2 57.5 24 -6 21.2
09:30 1008 29.77 837 24.72 14.6 58.3 22 -6.6 20.1
09:35 1008 29.77 837 24.72 14.9 58.9 22 -6.5 20.3
09:40 1008 29.77 837 24.72 15.1 59.2 22 -6.1 21
09:45 1008 29.77 837 24.72 15 58.9 22 -6.3 20.6
09:50 1008 29.77 837 24.72 15.1 59.2 22 -6.3 20.6
09:55 1008 29.77 837 24.72 15.3 59.5 20 -7.2 19
10:00 1008 29.77 837 24.72 15.4 59.8 20 -7.2 19.1
10:05 1008 29.77 837 24.72 15.4 59.8 19 -7.8 17.9
10:10 1008 29.77 837 24.72 15.4 59.8 20 -7.4 18.6
10:15 1008 29.77 837 24.72 15.4 59.8 20 -7.5 18.4
10:20 1007 29.74 837 24.72 15.5 59.8 20 -7.2 19
10:25 1007 29.74 837 24.72 15.5 59.9 20 -7.4 18.6
10:30 1007 29.74 837 24.72 15.5 60 21 -6.7 20
10:35 1007 29.74 836 24.69 15.6 60.2 20 -6.9 19.6
10:40 1007 29.74 836 24.69 16 60.7 18 -8.4 17
10:45 1007 29.74 836 24.69 16 60.8 18 -8 17.6
10:50 1007 29.74 836 24.69 16.3 61.3 18 -8 17.6
10:55 1007 29.74 836 24.69 16.3 61.3 17 -8.9 16
11:00 1007 29.74 836 24.69 16.4 61.5 18 -8 17.6
11:05 1007 29.74 836 24.69 16.4 61.4 17 -9 15.8
11:10 1007 29.74 836 24.69 16.4 61.5 17 -8.4 17
11:15 1007 29.74 836 24.69 16.6 61.8 17 -8.4 17
11:20 1006 29.71 836 24.69 16.6 61.8 16 -9.1 15.6
11:25 1006 29.71 836 24.69 16.5 61.7 16 -9.2 15.4
11:30 1006 29.71 836 24.69 16.5 61.7 17 -8.3 17
11:35 1006 29.71 835 24.66 16.7 62.1 18 -7.7 18.1
11:40 1006 29.71 835 24.66 16.7 62 17 -8.4 16.8
11:45 1006 29.71 835 24.66 17 62.5 15 -9.6 14.7
11:50 1006 29.71 835 24.66 17.1 62.8 15 -9.3 15.3
11:55 1006 29.71 835 24.66 17.2 63 15 -9.8 14.3
12:00 1006 29.71 835 24.66 17.4 63.3 15 -9.1 15.5
12:05 1006 29.71 835 24.66 17.3 63.1 15 -9.4 15.1
12:10 1006 29.71 835 24.66 17.2 62.9 16 -9.2 15.5
12:15 1006 29.71 835 24.66 17.3 63.2 15 -9.6 14.7
12:20 1006 29.71 835 24.66 17.3 63.1 15 -9.7 14.6
12:25 1005 29.68 835 24.66 17.3 63.2 15 -9.2 15.5
12:30 1005 29.68 835 24.66 17.3 63.2 15 -9.7 14.6
12:35 1005 29.68 835 24.66 16.9 62.4 15 -9.9 14.2
12:40 1005 29.68 834 24.63 17.1 62.7 16 -9 15.8
12:45 1005 29.68 834 24.63 17 62.6 15 -9.6 14.8
12:50 1005 29.68 834 24.63 16.9 62.3 16 -9.3 15.3
12:55 1005 29.68 834 24.63 17.2 63 16 -9.1 15.7
13:00 1005 29.68 834 24.63 17.3 63.1 15 -9.6 14.7
13:05 1005 29.68 834 24.63 17.2 63 16 -9.2 15.5
13:10 1005 29.68 834 24.63 17.1 62.9 16 -8.5 16.8
13:15 1005 29.68 834 24.63 17.3 63.2 15 -9.6 14.7
13:20 1005 29.68 834 24.63 17.2 63 15 -9.6 14.8
13:25 1005 29.68 834 24.63 17.3 63.1 15 -9.6 14.7
13:30 1005 29.68 834 24.63 17.3 63.2 15 -9.8 14.4
13:35 1005 29.68 834 24.63 17.3 63.1 16 -9 15.7
13:40 1005 29.68 834 24.63 17.4 63.3 16 -8.8 16.1
13:45 1005 29.68 834 24.63 17.7 63.8 15 -8.9 15.9
13:50 1004 29.65 834 24.63 17.8 64 15 -9.1 15.6
13:55 1004 29.65 833 24.6 17.4 63.3 15 -9.2 15.5
14:00 1004 29.65 833 24.6 17.4 63.3 15 -9.3 15.3
14:05 1004 29.65 833 24.6 17.5 63.5 15 -9.6 14.7
14:10 1004 29.65 833 24.6 17.4 63.2 16 -9 15.8
14:15 1004 29.65 833 24.6 17.8 64 15 -9.2 15.4
14:20 1004 29.65 833 24.6 17.6 63.8 16 -8.8 16.2
14:25 1004 29.65 833 24.6 17.3 63.1 15 -9.4 15
14:30 1004 29.65 833 24.6 17 62.5 15 -9.4 15
14:35 1004 29.65 833 24.6 16.9 62.5 15 -9.5 14.9
14:40 1004 29.65 833 24.6 17.1 62.7 15 -9.5 14.9
14:45 1003 29.62 832 24.57 16.9 62.3 15 -9.8 14.4
14:50 1003 29.62 833 24.6 16.9 62.4 15 -9.8 14.3
14:55 1003 29.62 832 24.57 16.8 62.2 15 -9.7 14.5
15:00 1003 29.62 832 24.57 16.8 62.2 15 -9.7 14.6
15:05 1003 29.62 832 24.57 17 62.6 16 -9.2 15.4
15:10 1003 29.62 832 24.57 17 62.5 16 -9 15.8
15:15 1003 29.62 832 24.57 16.9 62.4 16 -9.4 15
15:20 1003 29.62 832 24.57 16.8 62.3 16 -9.2 15.4
15:25 1003 29.62 832 24.57 16.8 62.3 16 -9.5 15
15:30 1003 29.62 832 24.57 16.7 62.1 16 -9.3 15.3
15:35 1003 29.62 832 24.57 16.7 62 16 -8.8 16.1
15:40 1003 29.62 832 24.57 16.7 62 17 -8.1 17.4
15:45 1003 29.62 832 24.57 16.6 61.9 18 -7.9 17.8
15:50 1003 29.62 832 24.57 16.6 61.9 16 -9.1 15.6
15:55 1003 29.62 832 24.57 16.6 61.8 17 -8.3 17
16:00 1003 29.62 832 24.57 16.4 61.5 16 -9.4 15
16:05 1003 29.62 832 24.57 16.3 61.3 18 -7.8 17.9
16:10 1002 29.59 832 24.57 16.2 61.2 19 -7.6 18.2
16:15 1002 29.59 832 24.57 16 60.8 19 -7.6 18.3
16:20 1002 29.59 832 24.57 15.8 60.5 19 -7.4 18.7
16:25 1002 29.59 831 24.54 15.7 60.3 19 -7.9 17.7
16:30 1002 29.59 831 24.54 15.8 60.4 18 -8.1 17.4
16:35 1002 29.59 831 24.54 15.7 60.3 18 -8.6 16.5
16:40 1002 29.59 831 24.54 15.6 60 19 -7.7 18.2
16:45 1002 29.59 831 24.54 15.3 59.5 19 -8.1 17.3
16:50 1002 29.59 831 24.54 15 58.9 21 -6.9 19.5
16:55 1002 29.59 831 24.54 14.2 57.6 22 -7.2 19
17:00 1002 29.59 831 24.54 13.8 56.9 24 -6.5 20.3
17:05 1002 29.59 831 24.54 13.4 56.1 23 -7.2 19
17:10 1002 29.59 831 24.54 13.4 56.2 24 -6.8 19.8
17:15 1002 29.59 831 24.54 13 55.3 23 -7.8 18
17:20 1001 29.56 831 24.54 13.5 56.3 21 -8.1 17.4
17:25 1001 29.56 831 24.54 13.6 56.4 21 -8.3 17.1
17:30 1001 29.56 831 24.54 13.7 56.7 21 -8 17.5
17:35 1001 29.56 830 24.51 13.7 56.6 21 -8.2 17.2
17:40 1001 29.56 830 24.51 13.7 56.6 21 -8 17.6
17:45 1001 29.56 830 24.51 13.3 56 22 -7.8 17.9
17:50 1001 29.56 830 24.51 13.2 55.7 22 -8.3 17.1
17:55 1001 29.56 830 24.51 13.1 55.6 23 -7.8 18
18:00 1001 29.56 830 24.51 13 55.4 22 -8 17.7
18:05 1001 29.56 830 24.51 13 55.3 22 -8.2 17.2
18:10 1001 29.56 830 24.51 13.2 55.7 22 -8.3 17
18:15 1001 29.56 830 24.51 13.2 55.7 22 -7.8 18
18:20 1001 29.56 830 24.51 13.3 56 22 -8 17.5
18:25 1001 29.56 830 24.51 13.4 56.1 22 -7.6 18.2
18:30 1001 29.56 830 24.51 13.2 55.7 22 -8 17.6
18:35 1001 29.56 830 24.51 13.1 55.6 23 -7.5 18.4
18:40 1001 29.56 831 24.54 12.4 54.4 28 -5.5 22.2
18:45 1001 29.56 831 24.54 10.1 50.1 33 -5.5 22
18:50 1002 29.59 831 24.54 8.7 47.7 37 -5.3 22.5
18:55 1002 29.59 831 24.54 7.5 45.5 40 -5.3 22.5
19:00 1002 29.59 831 24.54 6.7 44.1 43 -5.1 22.8
19:05 1002 29.59 831 24.54 5.6 42.1 46 -5.1 22.9
19:10 1002 29.59 831 24.54 5 40.9 48 -5.2 22.7
19:15 1002 29.59 831 24.54 4.6 40.3 49 -5.2 22.6
19:20 1002 29.59 831 24.54 4.3 39.7 50 -5.3 22.5
19:25 1002 29.59 831 24.54 3.8 38.9 51 -5.3 22.4
19:30 1002 29.59 831 24.54 3.5 38.3 52 -5.4 22.3
19:35 1002 29.59 832 24.57 3.4 38.2 52 -5.4 22.3
19:40 1003 29.62 832 24.57 3.1 37.5 54 -5.4 22.4
19:45 1003 29.62 832 24.57 2.9 37.3 54 -5.4 22.3
19:50 1003 29.62 832 24.57 2.8 37.1 54 -5.5 22.1
19:55 1003 29.62 832 24.57 2.8 37 55 -5.5 22.1
20:00 1004 29.65 833 24.6 2.5 36.5 56 -5.4 22.2
20:05 1004 29.65 833 24.6 2.2 36 56 -5.6 21.9
20:10 1004 29.65 833 24.6 1.9 35.4 58 -5.6 21.9
20:15 1004 29.65 833 24.6 1.9 35.4 58 -5.6 21.9
20:20 1004 29.65 834 24.63 1.8 35.2 58 -5.6 21.9
20:25 1005 29.68 834 24.63 1.5 34.7 59 -5.6 21.9
20:30 1005 29.68 834 24.63 1.4 34.4 60 -5.6 22
20:35 1005 29.68 834 24.63 1.3 34.3 60 -5.7 21.8
20:40 1005 29.68 834 24.63 1.1 34 61 -5.7 21.8
20:45 1005 29.68 834 24.63 1.1 34 61 -5.6 21.9
20:50 1005 29.68 835 24.66 0.9 33.7 61 -5.7 21.7
20:55 1006 29.71 835 24.66 0.7 33.3 62 -5.6 21.8
21:00 1006 29.71 835 24.66 0.4 32.7 64 -5.7 21.8
21:05 1006 29.71 835 24.66 0.5 32.8 63 -5.8 21.5
21:10 1006 29.71 835 24.66 0.3 32.6 64 -5.8 21.5
21:15 1006 29.71 835 24.66 0.1 32.2 63 -6 21.2
21:20 1006 29.71 835 24.66 0.2 32.4 63 -6 21.1
21:25 1006 29.71 836 24.69 0.2 32.4 63 -6.1 21.1
21:30 1006 29.71 836 24.69 0.2 32.4 63 -6.1 21.1
21:35 1007 29.74 836 24.69 0.4 32.7 62 -6 21.3
21:40 1007 29.74 836 24.69 0.4 32.6 64 -5.6 21.9
21:45 1007 29.74 836 24.69 -0.7 30.7 73 -5.1 22.9
21:50 1007 29.74 836 24.69 -1.2 29.8 73 -5.4 22.3
21:55 1007 29.74 836 24.69 -1 30.2 70 -5.7 21.7
22:00 1007 29.74 836 24.69 -1.3 29.6 72 -5.8 21.6
22:05 1007 29.74 837 24.72 -1.5 29.4 72 -5.9 21.5
22:10 1007 29.74 837 24.72 -1.4 29.5 71 -6 21.1
22:15 1007 29.74 837 24.72 -1.4 29.5 71 -6 21.2
22:20 1008 29.77 837 24.72 -1.6 29.1 73 -5.8 21.6
22:25 1008 29.77 837 24.72 -1.9 28.6 75 -5.7 21.8
22:30 1008 29.77 837 24.72 -2 28.4 79 -5.2 22.7
22:35 1008 29.77 837 24.72 -2.3 27.8 83 -4.8 23.3
22:40 1008 29.77 837 24.72 -2.7 27.1 88 -4.4 24
22:45 1008 29.77 837 24.72 -2.8 26.9 90 -4.3 24.3
22:50 1008 29.77 837 24.72 -2.9 26.8 91 -4.2 24.5
22:55 1008 29.77 837 24.72 -3.1 26.4 92 -4.2 24.4
23:00 1008 29.77 838 24.75 -3.4 25.9 92 -4.6 23.8
23:05 1009 29.8 838 24.75 -3.7 25.4 92 -4.7 23.5
23:10 1009 29.8 838 24.75 -3.8 25.1 93 -4.8 23.4
23:15 1009 29.8 838 24.75 -3.8 25.2 94 -4.6 23.6
23:20 1009 29.8 839 24.78 -3.9 25.1 93 -4.8 23.3
23:25 1009 29.8 839 24.78 -4 24.8 93 -5 23.1
23:30 1009 29.8 839 24.78 -4 24.8 93 -5 23
23:35 1009 29.8 839 24.78 -4.3 24.3 94 -5.1 22.7
23:40 1010 29.83 839 24.78 -4.5 23.9 94 -5.3 22.5
23:45 1010 29.83 839 24.78 -4.6 23.7 95 -5.3 22.4
23:50 1010 29.83 839 24.78 -4.7 23.6 94 -5.5 22.2
23:55 1010 29.83 839 24.78 -4.9 23.1 94 -5.7 21.7
24:00 1010 29.83 839 24.78 -5.2 22.7 95 -5.9 21.4